sensor_id;sensor_type;location;lat;lon;timestamp;temperature;humidity
6948;DHT22;3513;47.664;9.162;2023-03-23T00:01:07;8.80;95.60
6948;DHT22;3513;47.664;9.162;2023-03-23T00:03:39;8.80;95.70
6948;DHT22;3513;47.664;9.162;2023-03-23T00:06:05;8.80;95.80
6948;DHT22;3513;47.664;9.162;2023-03-23T00:08:36;8.80;96.10
6948;DHT22;3513;47.664;9.162;2023-03-23T00:11:06;8.80;96.40
6948;DHT22;3513;47.664;9.162;2023-03-23T00:13:33;8.80;96.50
6948;DHT22;3513;47.664;9.162;2023-03-23T00:15:58;8.90;96.70
6948;DHT22;3513;47.664;9.162;2023-03-23T00:18:25;8.90;96.90
6948;DHT22;3513;47.664;9.162;2023-03-23T00:20:53;8.90;97.00
6948;DHT22;3513;47.664;9.162;2023-03-23T00:23:21;9.00;97.20
6948;DHT22;3513;47.664;9.162;2023-03-23T00:25:52;8.90;97.30
6948;DHT22;3513;47.664;9.162;2023-03-23T00:28:20;9.00;97.50
6948;DHT22;3513;47.664;9.162;2023-03-23T00:31:04;9.00;97.50
6948;DHT22;3513;47.664;9.162;2023-03-23T00:33:32;8.90;97.60
6948;DHT22;3513;47.664;9.162;2023-03-23T00:35:59;8.90;97.70
6948;DHT22;3513;47.664;9.162;2023-03-23T00:38:25;8.90;97.90
6948;DHT22;3513;47.664;9.162;2023-03-23T00:40:50;8.90;98.00
6948;DHT22;3513;47.664;9.162;2023-03-23T00:43:17;8.90;98.10
6948;DHT22;3513;47.664;9.162;2023-03-23T00:45:44;9.00;98.50
6948;DHT22;3513;47.664;9.162;2023-03-23T00:48:10;9.00;98.80
6948;DHT22;3513;47.664;9.162;2023-03-23T00:50:38;9.00;98.90
6948;DHT22;3513;47.664;9.162;2023-03-23T00:53:03;9.00;99.00
6948;DHT22;3513;47.664;9.162;2023-03-23T00:55:29;9.00;99.20
6948;DHT22;3513;47.664;9.162;2023-03-23T00:57:56;9.10;99.30
6948;DHT22;3513;47.664;9.162;2023-03-23T01:00:22;9.10;99.40
6948;DHT22;3513;47.664;9.162;2023-03-23T01:02:48;9.10;99.50
6948;DHT22;3513;47.664;9.162;2023-03-23T01:05:17;9.10;99.60
6948;DHT22;3513;47.664;9.162;2023-03-23T01:07:43;9.20;99.60
6948;DHT22;3513;47.664;9.162;2023-03-23T01:10:10;9.20;99.50
6948;DHT22;3513;47.664;9.162;2023-03-23T01:12:38;9.30;99.50
6948;DHT22;3513;47.664;9.162;2023-03-23T01:15:04;9.30;99.50
6948;DHT22;3513;47.664;9.162;2023-03-23T01:17:30;9.30;99.40
6948;DHT22;3513;47.664;9.162;2023-03-23T01:19:55;9.30;99.40
6948;DHT22;3513;47.664;9.162;2023-03-23T01:22:21;9.30;99.40
6948;DHT22;3513;47.664;9.162;2023-03-23T01:24:47;9.40;99.50
6948;DHT22;3513;47.664;9.162;2023-03-23T01:27:12;9.40;99.50
6948;DHT22;3513;47.664;9.162;2023-03-23T01:29:38;9.40;99.50
6948;DHT22;3513;47.664;9.162;2023-03-23T01:32:04;9.40;99.50
6948;DHT22;3513;47.664;9.162;2023-03-23T01:34:29;9.40;99.50
6948;DHT22;3513;47.664;9.162;2023-03-23T01:36:55;9.40;99.60
6948;DHT22;3513;47.664;9.162;2023-03-23T01:39:21;9.40;99.50
6948;DHT22;3513;47.664;9.162;2023-03-23T01:41:46;9.50;99.50
6948;DHT22;3513;47.664;9.162;2023-03-23T01:46:41;9.50;99.40
6948;DHT22;3513;47.664;9.162;2023-03-23T01:49:13;9.50;99.40
6948;DHT22;3513;47.664;9.162;2023-03-23T01:51:44;9.50;99.30
6948;DHT22;3513;47.664;9.162;2023-03-23T01:54:14;9.60;99.20
6948;DHT22;3513;47.664;9.162;2023-03-23T01:56:56;9.60;99.10
6948;DHT22;3513;47.664;9.162;2023-03-23T01:59:25;9.60;98.90
6948;DHT22;3513;47.664;9.162;2023-03-23T02:01:54;9.70;98.70
6948;DHT22;3513;47.664;9.162;2023-03-23T02:04:20;9.70;98.60
6948;DHT22;3513;47.664;9.162;2023-03-23T02:06:47;9.80;98.50
6948;DHT22;3513;47.664;9.162;2023-03-23T02:09:13;9.80;98.40
6948;DHT22;3513;47.664;9.162;2023-03-23T02:11:39;9.90;98.30
6948;DHT22;3513;47.664;9.162;2023-03-23T02:14:05;9.80;98.10
6948;DHT22;3513;47.664;9.162;2023-03-23T02:16:43;9.70;98.20
6948;DHT22;3513;47.664;9.162;2023-03-23T02:39:16;9.80;98.30
6948;DHT22;3513;47.664;9.162;2023-03-23T02:41:54;9.80;98.10
6948;DHT22;3513;47.664;9.162;2023-03-23T02:44:23;9.80;97.80
6948;DHT22;3513;47.664;9.162;2023-03-23T02:46:51;9.90;97.60
6948;DHT22;3513;47.664;9.162;2023-03-23T02:49:19;10.00;96.80
6948;DHT22;3513;47.664;9.162;2023-03-23T02:51:46;10.00;96.80
6948;DHT22;3513;47.664;9.162;2023-03-23T02:54:15;10.10;97.10
6948;DHT22;3513;47.664;9.162;2023-03-23T02:56:42;10.00;96.90
6948;DHT22;3513;47.664;9.162;2023-03-23T02:59:08;9.80;97.80
6948;DHT22;3513;47.664;9.162;2023-03-23T03:04:05;9.50;98.60
6948;DHT22;3513;47.664;9.162;2023-03-23T03:07:01;9.40;99.10
6948;DHT22;3513;47.664;9.162;2023-03-23T03:09:49;9.30;99.30
6948;DHT22;3513;47.664;9.162;2023-03-23T03:12:23;9.30;99.50
6948;DHT22;3513;47.664;9.162;2023-03-23T03:17:35;9.20;99.60
6948;DHT22;3513;47.664;9.162;2023-03-23T03:20:06;9.20;99.70
6948;DHT22;3513;47.664;9.162;2023-03-23T03:22:38;9.30;99.70
6948;DHT22;3513;47.664;9.162;2023-03-23T03:25:08;9.30;99.80
6948;DHT22;3513;47.664;9.162;2023-03-23T03:27:34;9.40;99.70
6948;DHT22;3513;47.664;9.162;2023-03-23T03:30:02;9.40;99.70
6948;DHT22;3513;47.664;9.162;2023-03-23T03:32:40;9.40;99.80
6948;DHT22;3513;47.664;9.162;2023-03-23T03:35:06;9.50;99.90
6948;DHT22;3513;47.664;9.162;2023-03-23T03:37:36;9.50;99.90
6948;DHT22;3513;47.664;9.162;2023-03-23T03:40:05;9.60;99.90
6948;DHT22;3513;47.664;9.162;2023-03-23T03:42:39;9.60;99.90
6948;DHT22;3513;47.664;9.162;2023-03-23T03:45:07;9.60;99.90
6948;DHT22;3513;47.664;9.162;2023-03-23T03:47:33;9.60;99.70
6948;DHT22;3513;47.664;9.162;2023-03-23T03:49:59;9.70;99.60
6948;DHT22;3513;47.664;9.162;2023-03-23T03:52:24;9.60;99.60
6948;DHT22;3513;47.664;9.162;2023-03-23T03:54:50;9.60;99.80
6948;DHT22;3513;47.664;9.162;2023-03-23T03:57:16;9.60;99.90
6948;DHT22;3513;47.664;9.162;2023-03-23T03:59:43;9.60;99.90
6948;DHT22;3513;47.664;9.162;2023-03-23T04:02:09;9.60;99.90
6948;DHT22;3513;47.664;9.162;2023-03-23T04:04:39;9.50;99.90
6948;DHT22;3513;47.664;9.162;2023-03-23T04:07:04;9.50;99.90
6948;DHT22;3513;47.664;9.162;2023-03-23T04:09:30;9.50;99.90
6948;DHT22;3513;47.664;9.162;2023-03-23T04:11:56;9.60;99.90
6948;DHT22;3513;47.664;9.162;2023-03-23T04:14:22;9.60;99.90
6948;DHT22;3513;47.664;9.162;2023-03-23T04:16:47;9.60;99.90
6948;DHT22;3513;47.664;9.162;2023-03-23T04:19:13;9.70;99.90
6948;DHT22;3513;47.664;9.162;2023-03-23T04:21:39;9.70;99.90
6948;DHT22;3513;47.664;9.162;2023-03-23T04:24:05;9.70;99.90
6948;DHT22;3513;47.664;9.162;2023-03-23T04:26:32;9.70;99.90
6948;DHT22;3513;47.664;9.162;2023-03-23T04:28:57;9.70;99.90
6948;DHT22;3513;47.664;9.162;2023-03-23T04:31:26;9.70;99.90
6948;DHT22;3513;47.664;9.162;2023-03-23T04:33:51;9.70;99.90
6948;DHT22;3513;47.664;9.162;2023-03-23T04:36:19;9.60;99.90
6948;DHT22;3513;47.664;9.162;2023-03-23T04:38:45;9.60;99.90
6948;DHT22;3513;47.664;9.162;2023-03-23T04:41:11;9.60;99.90
6948;DHT22;3513;47.664;9.162;2023-03-23T04:43:36;9.60;99.90
6948;DHT22;3513;47.664;9.162;2023-03-23T04:46:07;9.60;99.90
6948;DHT22;3513;47.664;9.162;2023-03-23T04:48:36;9.60;99.90
6948;DHT22;3513;47.664;9.162;2023-03-23T04:51:04;9.60;99.90
6948;DHT22;3513;47.664;9.162;2023-03-23T04:53:30;9.60;99.90
6948;DHT22;3513;47.664;9.162;2023-03-23T04:55:56;9.60;99.90
6948;DHT22;3513;47.664;9.162;2023-03-23T04:58:22;9.60;99.90
6948;DHT22;3513;47.664;9.162;2023-03-23T05:00:50;9.50;99.90
6948;DHT22;3513;47.664;9.162;2023-03-23T05:03:19;9.50;99.90
6948;DHT22;3513;47.664;9.162;2023-03-23T05:05:45;9.50;99.90
6948;DHT22;3513;47.664;9.162;2023-03-23T05:08:20;9.50;99.90
6948;DHT22;3513;47.664;9.162;2023-03-23T05:11:12;9.50;99.90
6948;DHT22;3513;47.664;9.162;2023-03-23T05:13:37;9.50;99.90
6948;DHT22;3513;47.664;9.162;2023-03-23T05:16:05;9.50;99.90
6948;DHT22;3513;47.664;9.162;2023-03-23T05:18:30;9.60;99.90
6948;DHT22;3513;47.664;9.162;2023-03-23T05:21:02;9.60;99.90
6948;DHT22;3513;47.664;9.162;2023-03-23T05:23:28;9.60;99.90
6948;DHT22;3513;47.664;9.162;2023-03-23T05:25:57;9.60;99.90
6948;DHT22;3513;47.664;9.162;2023-03-23T05:28:26;9.60;99.90
6948;DHT22;3513;47.664;9.162;2023-03-23T05:30:52;9.50;99.90
6948;DHT22;3513;47.664;9.162;2023-03-23T05:33:19;9.50;99.90
6948;DHT22;3513;47.664;9.162;2023-03-23T05:35:46;9.60;99.90
6948;DHT22;3513;47.664;9.162;2023-03-23T05:38:13;9.60;99.90
6948;DHT22;3513;47.664;9.162;2023-03-23T05:40:40;9.60;99.90
6948;DHT22;3513;47.664;9.162;2023-03-23T05:43:07;9.70;99.90
6948;DHT22;3513;47.664;9.162;2023-03-23T05:45:33;9.70;99.90
6948;DHT22;3513;47.664;9.162;2023-03-23T05:47:59;9.70;99.90
6948;DHT22;3513;47.664;9.162;2023-03-23T05:50:25;9.70;99.90
6948;DHT22;3513;47.664;9.162;2023-03-23T05:52:51;9.70;99.90
6948;DHT22;3513;47.664;9.162;2023-03-23T05:55:17;9.80;99.90
6948;DHT22;3513;47.664;9.162;2023-03-23T05:57:43;9.80;99.90
6948;DHT22;3513;47.664;9.162;2023-03-23T06:00:09;9.80;99.90
6948;DHT22;3513;47.664;9.162;2023-03-23T06:02:47;9.90;99.90
6948;DHT22;3513;47.664;9.162;2023-03-23T06:05:13;9.90;99.90
6948;DHT22;3513;47.664;9.162;2023-03-23T06:07:41;9.90;99.90
6948;DHT22;3513;47.664;9.162;2023-03-23T06:10:07;9.90;99.90
6948;DHT22;3513;47.664;9.162;2023-03-23T06:12:35;10.00;99.90
6948;DHT22;3513;47.664;9.162;2023-03-23T06:15:00;10.00;99.90
6948;DHT22;3513;47.664;9.162;2023-03-23T06:17:26;10.00;99.90
6948;DHT22;3513;47.664;9.162;2023-03-23T06:19:52;10.00;99.90
6948;DHT22;3513;47.664;9.162;2023-03-23T06:22:18;10.00;99.90
6948;DHT22;3513;47.664;9.162;2023-03-23T06:24:44;10.00;99.90
6948;DHT22;3513;47.664;9.162;2023-03-23T06:27:10;10.10;99.90
6948;DHT22;3513;47.664;9.162;2023-03-23T06:29:36;10.00;99.90
6948;DHT22;3513;47.664;9.162;2023-03-23T06:32:03;10.10;99.90
6948;DHT22;3513;47.664;9.162;2023-03-23T06:34:30;10.10;99.90
6948;DHT22;3513;47.664;9.162;2023-03-23T06:36:58;10.20;99.90
6948;DHT22;3513;47.664;9.162;2023-03-23T06:39:24;10.20;99.90
6948;DHT22;3513;47.664;9.162;2023-03-23T06:41:50;10.30;99.90
6948;DHT22;3513;47.664;9.162;2023-03-23T06:44:15;10.40;99.90
6948;DHT22;3513;47.664;9.162;2023-03-23T06:46:41;10.50;99.90
6948;DHT22;3513;47.664;9.162;2023-03-23T06:49:08;10.50;99.90
6948;DHT22;3513;47.664;9.162;2023-03-23T06:51:34;10.50;99.70
6948;DHT22;3513;47.664;9.162;2023-03-23T06:54:00;10.60;99.90
6948;DHT22;3513;47.664;9.162;2023-03-23T06:56:26;10.70;99.90
6948;DHT22;3513;47.664;9.162;2023-03-23T06:58:52;10.80;98.90
6948;DHT22;3513;47.664;9.162;2023-03-23T07:01:18;10.90;98.80
6948;DHT22;3513;47.664;9.162;2023-03-23T07:03:44;11.00;98.90
6948;DHT22;3513;47.664;9.162;2023-03-23T07:06:11;11.10;99.00
6948;DHT22;3513;47.664;9.162;2023-03-23T07:08:36;11.30;98.70
6948;DHT22;3513;47.664;9.162;2023-03-23T07:11:03;11.40;98.50
6948;DHT22;3513;47.664;9.162;2023-03-23T07:13:29;11.50;98.20
6948;DHT22;3513;47.664;9.162;2023-03-23T07:15:55;11.60;97.80
6948;DHT22;3513;47.664;9.162;2023-03-23T07:18:21;11.70;97.90
6948;DHT22;3513;47.664;9.162;2023-03-23T07:20:51;11.90;97.00
6948;DHT22;3513;47.664;9.162;2023-03-23T07:23:17;12.10;96.50
6948;DHT22;3513;47.664;9.162;2023-03-23T07:25:44;12.20;96.00
6948;DHT22;3513;47.664;9.162;2023-03-23T07:28:11;12.40;94.70
6948;DHT22;3513;47.664;9.162;2023-03-23T07:30:37;12.40;94.20
6948;DHT22;3513;47.664;9.162;2023-03-23T07:33:05;12.50;94.20
6948;DHT22;3513;47.664;9.162;2023-03-23T07:35:31;12.60;94.20
6948;DHT22;3513;47.664;9.162;2023-03-23T07:37:57;12.70;94.30
6948;DHT22;3513;47.664;9.162;2023-03-23T07:40:23;12.90;92.80
6948;DHT22;3513;47.664;9.162;2023-03-23T07:42:53;13.10;91.70
6948;DHT22;3513;47.664;9.162;2023-03-23T07:45:20;13.30;90.90
6948;DHT22;3513;47.664;9.162;2023-03-23T07:47:47;13.50;90.30
6948;DHT22;3513;47.664;9.162;2023-03-23T07:50:13;13.60;89.10
6948;DHT22;3513;47.664;9.162;2023-03-23T07:52:40;13.70;87.90
6948;DHT22;3513;47.664;9.162;2023-03-23T07:55:09;13.90;88.60
6948;DHT22;3513;47.664;9.162;2023-03-23T07:57:37;13.90;87.00
6948;DHT22;3513;47.664;9.162;2023-03-23T08:00:04;14.10;85.80
6948;DHT22;3513;47.664;9.162;2023-03-23T08:02:36;14.10;85.70
6948;DHT22;3513;47.664;9.162;2023-03-23T08:05:02;14.20;86.00
6948;DHT22;3513;47.664;9.162;2023-03-23T08:07:27;14.20;86.50
6948;DHT22;3513;47.664;9.162;2023-03-23T08:09:53;14.30;86.30
6948;DHT22;3513;47.664;9.162;2023-03-23T08:12:19;14.30;84.80
6948;DHT22;3513;47.664;9.162;2023-03-23T08:14:44;14.30;84.20
6948;DHT22;3513;47.664;9.162;2023-03-23T08:17:10;14.30;84.00
6948;DHT22;3513;47.664;9.162;2023-03-23T08:19:36;14.30;84.40
6948;DHT22;3513;47.664;9.162;2023-03-23T08:22:03;14.40;83.10
6948;DHT22;3513;47.664;9.162;2023-03-23T08:24:30;14.50;82.00
6948;DHT22;3513;47.664;9.162;2023-03-23T08:26:56;14.60;81.60
6948;DHT22;3513;47.664;9.162;2023-03-23T08:29:22;14.50;80.20
6948;DHT22;3513;47.664;9.162;2023-03-23T08:31:47;14.70;80.90
6948;DHT22;3513;47.664;9.162;2023-03-23T08:34:13;14.80;79.80
6948;DHT22;3513;47.664;9.162;2023-03-23T08:36:40;14.90;77.40
6948;DHT22;3513;47.664;9.162;2023-03-23T08:39:09;15.00;77.70
6948;DHT22;3513;47.664;9.162;2023-03-23T08:41:35;15.20;75.80
6948;DHT22;3513;47.664;9.162;2023-03-23T08:44:01;15.30;74.70
6948;DHT22;3513;47.664;9.162;2023-03-23T08:46:27;15.40;72.70
6948;DHT22;3513;47.664;9.162;2023-03-23T08:48:52;15.60;71.00
6948;DHT22;3513;47.664;9.162;2023-03-23T08:51:19;15.70;69.40
6948;DHT22;3513;47.664;9.162;2023-03-23T08:53:46;15.90;68.00
6948;DHT22;3513;47.664;9.162;2023-03-23T08:56:12;15.90;66.60
6948;DHT22;3513;47.664;9.162;2023-03-23T08:58:39;16.00;64.90
6948;DHT22;3513;47.664;9.162;2023-03-23T09:01:06;16.00;64.50
6948;DHT22;3513;47.664;9.162;2023-03-23T09:03:33;16.10;65.30
6948;DHT22;3513;47.664;9.162;2023-03-23T09:06:01;16.20;64.50
6948;DHT22;3513;47.664;9.162;2023-03-23T09:08:28;16.20;64.50
6948;DHT22;3513;47.664;9.162;2023-03-23T09:10:57;16.30;64.40
6948;DHT22;3513;47.664;9.162;2023-03-23T09:13:23;16.30;64.90
6948;DHT22;3513;47.664;9.162;2023-03-23T09:15:49;16.30;63.90
6948;DHT22;3513;47.664;9.162;2023-03-23T09:18:15;16.40;64.10
6948;DHT22;3513;47.664;9.162;2023-03-23T09:20:42;16.50;63.10
6948;DHT22;3513;47.664;9.162;2023-03-23T09:23:09;16.50;63.50
6948;DHT22;3513;47.664;9.162;2023-03-23T09:25:35;16.60;64.40
6948;DHT22;3513;47.664;9.162;2023-03-23T09:28:00;16.70;65.50
6948;DHT22;3513;47.664;9.162;2023-03-23T09:30:29;16.90;65.30
6948;DHT22;3513;47.664;9.162;2023-03-23T09:32:56;16.90;63.90
6948;DHT22;3513;47.664;9.162;2023-03-23T09:35:23;17.00;63.30
6948;DHT22;3513;47.664;9.162;2023-03-23T09:37:51;17.10;61.10
6948;DHT22;3513;47.664;9.162;2023-03-23T09:40:26;17.20;61.50
6948;DHT22;3513;47.664;9.162;2023-03-23T09:49:01;17.40;60.90
6948;DHT22;3513;47.664;9.162;2023-03-23T09:54:13;17.50;64.20
6948;DHT22;3513;47.664;9.162;2023-03-23T09:56:39;17.50;64.20
6948;DHT22;3513;47.664;9.162;2023-03-23T09:59:10;17.50;64.00
6948;DHT22;3513;47.664;9.162;2023-03-23T10:01:48;17.60;64.10
6948;DHT22;3513;47.664;9.162;2023-03-23T10:04:38;17.70;64.00
6948;DHT22;3513;47.664;9.162;2023-03-23T10:07:20;17.70;63.50
6948;DHT22;3513;47.664;9.162;2023-03-23T10:09:49;17.80;63.20
6948;DHT22;3513;47.664;9.162;2023-03-23T10:17:27;18.10;63.10
6948;DHT22;3513;47.664;9.162;2023-03-23T10:20:13;18.30;62.30
6948;DHT22;3513;47.664;9.162;2023-03-23T10:22:49;18.40;62.00
6948;DHT22;3513;47.664;9.162;2023-03-23T10:25:19;18.50;60.40
6948;DHT22;3513;47.664;9.162;2023-03-23T10:28:09;18.40;57.10
6948;DHT22;3513;47.664;9.162;2023-03-23T10:30:56;18.20;56.80
6948;DHT22;3513;47.664;9.162;2023-03-23T10:36:12;18.10;56.80
6948;DHT22;3513;47.664;9.162;2023-03-23T10:38:45;18.10;56.80
6948;DHT22;3513;47.664;9.162;2023-03-23T10:41:15;18.00;57.20
6948;DHT22;3513;47.664;9.162;2023-03-23T10:43:42;17.90;55.90
6948;DHT22;3513;47.664;9.162;2023-03-23T10:49:09;17.80;56.30
6948;DHT22;3513;47.664;9.162;2023-03-23T10:51:41;17.80;55.70
6948;DHT22;3513;47.664;9.162;2023-03-23T10:54:07;17.70;55.50
6948;DHT22;3513;47.664;9.162;2023-03-23T10:56:39;17.60;55.80
6948;DHT22;3513;47.664;9.162;2023-03-23T10:59:31;17.60;55.70
6948;DHT22;3513;47.664;9.162;2023-03-23T11:02:02;17.60;56.30
6948;DHT22;3513;47.664;9.162;2023-03-23T11:04:30;17.60;55.90
6948;DHT22;3513;47.664;9.162;2023-03-23T11:07:00;17.60;56.20
6948;DHT22;3513;47.664;9.162;2023-03-23T11:09:38;17.50;56.00
6948;DHT22;3513;47.664;9.162;2023-03-23T11:12:04;17.50;55.70
6948;DHT22;3513;47.664;9.162;2023-03-23T11:14:33;17.50;55.70
6948;DHT22;3513;47.664;9.162;2023-03-23T11:17:04;17.50;55.70
6948;DHT22;3513;47.664;9.162;2023-03-23T11:19:34;17.50;56.60
6948;DHT22;3513;47.664;9.162;2023-03-23T11:22:18;17.60;56.80
6948;DHT22;3513;47.664;9.162;2023-03-23T11:24:47;17.60;57.70
6948;DHT22;3513;47.664;9.162;2023-03-23T11:27:14;17.70;57.30
6948;DHT22;3513;47.664;9.162;2023-03-23T11:29:51;17.70;57.00
6948;DHT22;3513;47.664;9.162;2023-03-23T11:32:17;17.80;56.70
6948;DHT22;3513;47.664;9.162;2023-03-23T11:34:46;17.80;56.10
6948;DHT22;3513;47.664;9.162;2023-03-23T11:37:37;17.80;56.90
6948;DHT22;3513;47.664;9.162;2023-03-23T11:42:46;17.90;58.00
6948;DHT22;3513;47.664;9.162;2023-03-23T11:45:20;17.90;58.00
6948;DHT22;3513;47.664;9.162;2023-03-23T11:53:47;18.20;57.60
6948;DHT22;3513;47.664;9.162;2023-03-23T11:58:48;18.30;56.90
6948;DHT22;3513;47.664;9.162;2023-03-23T12:04:30;18.50;56.10
6948;DHT22;3513;47.664;9.162;2023-03-23T12:12:42;18.70;54.50
6948;DHT22;3513;47.664;9.162;2023-03-23T12:18:29;18.80;54.40
6948;DHT22;3513;47.664;9.162;2023-03-23T12:26:21;18.50;53.70
6948;DHT22;3513;47.664;9.162;2023-03-23T12:29:05;18.50;54.70
6948;DHT22;3513;47.664;9.162;2023-03-23T12:32:13;18.30;54.40
6948;DHT22;3513;47.664;9.162;2023-03-23T12:34:47;18.30;55.10
6948;DHT22;3513;47.664;9.162;2023-03-23T12:37:20;18.30;55.80
6948;DHT22;3513;47.664;9.162;2023-03-23T12:43:03;18.40;55.30
6948;DHT22;3513;47.664;9.162;2023-03-23T12:48:28;18.50;55.80
6948;DHT22;3513;47.664;9.162;2023-03-23T12:51:16;18.60;54.80
6948;DHT22;3513;47.664;9.162;2023-03-23T12:54:01;18.70;54.40
6948;DHT22;3513;47.664;9.162;2023-03-23T13:01:48;18.50;54.40
6948;DHT22;3513;47.664;9.162;2023-03-23T13:04:30;18.50;54.60
6948;DHT22;3513;47.664;9.162;2023-03-23T13:06:57;18.40;54.90
6948;DHT22;3513;47.664;9.162;2023-03-23T13:09:30;18.30;55.20
6948;DHT22;3513;47.664;9.162;2023-03-23T13:11:59;18.30;56.10
6948;DHT22;3513;47.664;9.162;2023-03-23T13:17:11;18.30;56.00
6948;DHT22;3513;47.664;9.162;2023-03-23T13:22:39;18.30;55.70
6948;DHT22;3513;47.664;9.162;2023-03-23T13:25:15;18.30;56.10
6948;DHT22;3513;47.664;9.162;2023-03-23T13:27:42;18.30;55.90
6948;DHT22;3513;47.664;9.162;2023-03-23T13:30:20;18.30;55.90
6948;DHT22;3513;47.664;9.162;2023-03-23T13:32:51;18.20;56.70
6948;DHT22;3513;47.664;9.162;2023-03-23T13:35:22;18.10;57.10
6948;DHT22;3513;47.664;9.162;2023-03-23T13:37:50;18.00;57.20
6948;DHT22;3513;47.664;9.162;2023-03-23T13:42:58;17.70;57.40
6948;DHT22;3513;47.664;9.162;2023-03-23T13:45:42;17.50;60.70
6948;DHT22;3513;47.664;9.162;2023-03-23T13:50:56;17.30;58.90
6948;DHT22;3513;47.664;9.162;2023-03-23T13:54:03;17.20;60.10
6948;DHT22;3513;47.664;9.162;2023-03-23T13:56:32;17.10;61.00
6948;DHT22;3513;47.664;9.162;2023-03-23T14:01:37;17.10;61.50
6948;DHT22;3513;47.664;9.162;2023-03-23T14:04:15;17.10;63.20
6948;DHT22;3513;47.664;9.162;2023-03-23T14:06:43;16.50;62.60
6948;DHT22;3513;47.664;9.162;2023-03-23T14:09:32;16.80;64.00
6948;DHT22;3513;47.664;9.162;2023-03-23T14:12:00;16.70;65.20
6948;DHT22;3513;47.664;9.162;2023-03-23T14:14:39;16.70;64.10
6948;DHT22;3513;47.664;9.162;2023-03-23T14:17:10;16.70;65.20
6948;DHT22;3513;47.664;9.162;2023-03-23T14:19:39;16.60;65.40
6948;DHT22;3513;47.664;9.162;2023-03-23T14:22:23;16.60;66.60
6948;DHT22;3513;47.664;9.162;2023-03-23T14:24:50;16.70;64.40
6948;DHT22;3513;47.664;9.162;2023-03-23T14:27:20;16.70;64.10
6948;DHT22;3513;47.664;9.162;2023-03-23T14:30:00;16.70;63.40
6948;DHT22;3513;47.664;9.162;2023-03-23T14:32:28;16.70;62.10
6948;DHT22;3513;47.664;9.162;2023-03-23T14:34:57;16.80;61.80
6948;DHT22;3513;47.664;9.162;2023-03-23T14:37:23;16.80;62.60
6948;DHT22;3513;47.664;9.162;2023-03-23T14:39:54;16.80;63.10
6948;DHT22;3513;47.664;9.162;2023-03-23T14:42:31;16.70;62.10
6948;DHT22;3513;47.664;9.162;2023-03-23T14:44:59;16.70;62.10
6948;DHT22;3513;47.664;9.162;2023-03-23T14:47:37;16.70;62.50
6948;DHT22;3513;47.664;9.162;2023-03-23T14:50:06;16.60;61.30
6948;DHT22;3513;47.664;9.162;2023-03-23T14:52:38;16.60;61.30
6948;DHT22;3513;47.664;9.162;2023-03-23T14:55:20;16.70;62.00
6948;DHT22;3513;47.664;9.162;2023-03-23T14:57:47;16.70;61.80
6948;DHT22;3513;47.664;9.162;2023-03-23T15:00:22;16.80;61.70
6948;DHT22;3513;47.664;9.162;2023-03-23T15:02:53;16.80;62.00
6948;DHT22;3513;47.664;9.162;2023-03-23T15:05:27;16.80;61.00
6948;DHT22;3513;47.664;9.162;2023-03-23T15:07:56;16.80;61.00
6948;DHT22;3513;47.664;9.162;2023-03-23T15:10:23;16.90;60.60
6948;DHT22;3513;47.664;9.162;2023-03-23T15:12:50;16.90;61.10
6948;DHT22;3513;47.664;9.162;2023-03-23T15:15:31;16.90;60.50
6948;DHT22;3513;47.664;9.162;2023-03-23T15:17:59;16.90;60.50
6948;DHT22;3513;47.664;9.162;2023-03-23T15:20:47;16.90;60.70
6948;DHT22;3513;47.664;9.162;2023-03-23T15:23:21;16.90;61.50
6948;DHT22;3513;47.664;9.162;2023-03-23T15:25:50;17.00;61.30
6948;DHT22;3513;47.664;9.162;2023-03-23T15:28:17;17.00;60.60
6948;DHT22;3513;47.664;9.162;2023-03-23T15:31:04;17.00;61.20
6948;DHT22;3513;47.664;9.162;2023-03-23T15:33:35;17.00;60.10
6948;DHT22;3513;47.664;9.162;2023-03-23T15:36:24;17.10;60.00
6948;DHT22;3513;47.664;9.162;2023-03-23T15:38:50;17.10;59.20
6948;DHT22;3513;47.664;9.162;2023-03-23T15:41:26;17.10;59.30
6948;DHT22;3513;47.664;9.162;2023-03-23T15:43:57;17.10;59.40
6948;DHT22;3513;47.664;9.162;2023-03-23T15:46:25;17.20;59.70
6948;DHT22;3513;47.664;9.162;2023-03-23T15:51:24;17.20;59.30
6948;DHT22;3513;47.664;9.162;2023-03-23T15:53:52;17.20;59.50
6948;DHT22;3513;47.664;9.162;2023-03-23T15:56:18;17.10;59.20
6948;DHT22;3513;47.664;9.162;2023-03-23T15:58:43;17.20;59.50
6948;DHT22;3513;47.664;9.162;2023-03-23T16:01:24;17.20;59.70
6948;DHT22;3513;47.664;9.162;2023-03-23T16:06:30;17.10;59.20
6948;DHT22;3513;47.664;9.162;2023-03-23T16:08:56;17.10;59.80
6948;DHT22;3513;47.664;9.162;2023-03-23T16:11:24;17.10;59.80
6948;DHT22;3513;47.664;9.162;2023-03-23T16:13:50;17.10;60.00
6948;DHT22;3513;47.664;9.162;2023-03-23T16:16:46;17.00;60.10
6948;DHT22;3513;47.664;9.162;2023-03-23T16:19:13;17.00;59.60
6948;DHT22;3513;47.664;9.162;2023-03-23T16:21:40;16.90;60.20
6948;DHT22;3513;47.664;9.162;2023-03-23T16:24:06;16.90;60.00
6948;DHT22;3513;47.664;9.162;2023-03-23T16:26:33;16.90;59.70
6948;DHT22;3513;47.664;9.162;2023-03-23T16:28:58;16.90;59.30
6948;DHT22;3513;47.664;9.162;2023-03-23T16:31:25;16.90;59.70
6948;DHT22;3513;47.664;9.162;2023-03-23T16:33:50;16.90;60.20
6948;DHT22;3513;47.664;9.162;2023-03-23T16:36:16;16.90;60.30
6948;DHT22;3513;47.664;9.162;2023-03-23T16:38:41;16.90;60.20
6948;DHT22;3513;47.664;9.162;2023-03-23T16:41:07;16.80;60.00
6948;DHT22;3513;47.664;9.162;2023-03-23T16:43:33;16.80;60.30
6948;DHT22;3513;47.664;9.162;2023-03-23T16:45:59;16.80;60.70
6948;DHT22;3513;47.664;9.162;2023-03-23T16:48:25;16.70;60.80
6948;DHT22;3513;47.664;9.162;2023-03-23T16:50:51;16.70;60.40
6948;DHT22;3513;47.664;9.162;2023-03-23T16:53:19;16.70;61.40
6948;DHT22;3513;47.664;9.162;2023-03-23T16:55:45;16.60;61.60
6948;DHT22;3513;47.664;9.162;2023-03-23T16:58:12;16.60;61.90
6948;DHT22;3513;47.664;9.162;2023-03-23T17:00:38;16.50;62.10
6948;DHT22;3513;47.664;9.162;2023-03-23T17:03:05;16.50;62.70
6948;DHT22;3513;47.664;9.162;2023-03-23T17:05:30;16.40;62.30
6948;DHT22;3513;47.664;9.162;2023-03-23T17:07:56;16.40;62.60
6948;DHT22;3513;47.664;9.162;2023-03-23T17:10:24;16.30;62.90
6948;DHT22;3513;47.664;9.162;2023-03-23T17:12:52;16.30;63.50
6948;DHT22;3513;47.664;9.162;2023-03-23T17:15:17;16.30;62.90
6948;DHT22;3513;47.664;9.162;2023-03-23T17:17:43;16.20;62.90
6948;DHT22;3513;47.664;9.162;2023-03-23T17:20:09;16.20;63.10
6948;DHT22;3513;47.664;9.162;2023-03-23T17:22:36;16.10;63.30
6948;DHT22;3513;47.664;9.162;2023-03-23T17:25:02;16.10;63.40
6948;DHT22;3513;47.664;9.162;2023-03-23T17:27:28;16.10;63.70
6948;DHT22;3513;47.664;9.162;2023-03-23T17:29:54;16.00;63.80
6948;DHT22;3513;47.664;9.162;2023-03-23T17:32:21;16.00;64.30
6948;DHT22;3513;47.664;9.162;2023-03-23T17:34:48;16.00;64.70
6948;DHT22;3513;47.664;9.162;2023-03-23T17:37:14;15.90;65.00
6948;DHT22;3513;47.664;9.162;2023-03-23T17:39:40;15.90;65.20
6948;DHT22;3513;47.664;9.162;2023-03-23T17:42:06;15.90;65.60
6948;DHT22;3513;47.664;9.162;2023-03-23T17:44:31;15.90;65.80
6948;DHT22;3513;47.664;9.162;2023-03-23T17:46:57;15.80;65.70
6948;DHT22;3513;47.664;9.162;2023-03-23T17:49:24;15.80;65.30
6948;DHT22;3513;47.664;9.162;2023-03-23T17:51:50;15.80;65.30
6948;DHT22;3513;47.664;9.162;2023-03-23T17:54:15;15.80;65.60
6948;DHT22;3513;47.664;9.162;2023-03-23T17:56:41;15.70;65.90
6948;DHT22;3513;47.664;9.162;2023-03-23T17:59:06;15.70;66.30
6948;DHT22;3513;47.664;9.162;2023-03-23T18:01:33;15.60;67.10
6948;DHT22;3513;47.664;9.162;2023-03-23T18:03:58;15.60;67.30
6948;DHT22;3513;47.664;9.162;2023-03-23T18:06:24;15.50;67.50